sensor_id;sensor_type;location;lat;lon;timestamp;P1;durP1;ratioP1;P2;durP2;ratioP2
38162;SDS011;23977;53.078;18.248;2023-11-25T02:13:00;4.97;;;1.90;;
38162;SDS011;23977;53.078;18.248;2023-11-25T02:15:30;5.88;;;1.80;;
38162;SDS011;23977;53.078;18.248;2023-11-25T02:18:12;4.15;;;1.67;;
38162;SDS011;23977;53.078;18.248;2023-11-25T02:20:38;5.32;;;1.60;;
38162;SDS011;23977;53.078;18.248;2023-11-25T02:25:46;3.20;;;1.40;;
38162;SDS011;23977;53.078;18.248;2023-11-25T02:28:17;3.78;;;1.60;;
38162;SDS011;23977;53.078;18.248;2023-11-25T02:30:47;3.05;;;1.40;;
38162;SDS011;23977;53.078;18.248;2023-11-25T02:33:15;4.82;;;1.60;;
38162;SDS011;23977;53.078;18.248;2023-11-25T02:35:42;3.80;;;1.23;;
38162;SDS011;23977;53.078;18.248;2023-11-25T02:38:09;3.38;;;1.50;;
38162;SDS011;23977;53.078;18.248;2023-11-25T02:40:43;4.38;;;1.60;;
38162;SDS011;23977;53.078;18.248;2023-11-25T02:43:11;3.25;;;1.30;;
38162;SDS011;23977;53.078;18.248;2023-11-25T02:45:38;3.75;;;1.42;;
38162;SDS011;23977;53.078;18.248;2023-11-25T02:48:04;3.03;;;1.15;;
38162;SDS011;23977;53.078;18.248;2023-11-25T02:50:31;3.20;;;1.30;;
38162;SDS011;23977;53.078;18.248;2023-11-25T02:53:00;3.00;;;1.10;;
38162;SDS011;23977;53.078;18.248;2023-11-25T02:55:27;3.03;;;1.25;;
38162;SDS011;23977;53.078;18.248;2023-11-25T02:57:52;3.05;;;1.42;;
38162;SDS011;23977;53.078;18.248;2023-11-25T03:00:18;3.88;;;1.33;;
38162;SDS011;23977;53.078;18.248;2023-11-25T03:02:50;4.68;;;1.38;;
38162;SDS011;23977;53.078;18.248;2023-11-25T03:05:19;3.97;;;1.30;;
38162;SDS011;23977;53.078;18.248;2023-11-25T03:07:47;4.05;;;1.38;;
38162;SDS011;23977;53.078;18.248;2023-11-25T03:10:15;3.40;;;1.23;;
38162;SDS011;23977;53.078;18.248;2023-11-25T03:12:43;4.57;;;1.20;;
38162;SDS011;23977;53.078;18.248;2023-11-25T03:15:16;3.28;;;1.38;;
38162;SDS011;23977;53.078;18.248;2023-11-25T03:17:45;4.28;;;1.70;;
38162;SDS011;23977;53.078;18.248;2023-11-25T03:20:13;5.32;;;1.60;;
38162;SDS011;23977;53.078;18.248;2023-11-25T03:22:42;4.38;;;1.67;;
38162;SDS011;23977;53.078;18.248;2023-11-25T03:25:09;3.63;;;1.50;;
38162;SDS011;23977;53.078;18.248;2023-11-25T03:27:36;4.97;;;1.70;;
38162;SDS011;23977;53.078;18.248;2023-11-25T03:30:04;5.45;;;1.80;;
38162;SDS011;23977;53.078;18.248;2023-11-25T03:32:34;5.57;;;1.88;;
38162;SDS011;23977;53.078;18.248;2023-11-25T03:35:00;6.18;;;2.13;;
38162;SDS011;23977;53.078;18.248;2023-11-25T03:37:26;5.28;;;1.83;;
38162;SDS011;23977;53.078;18.248;2023-11-25T03:39:52;4.32;;;1.85;;
38162;SDS011;23977;53.078;18.248;2023-11-25T03:42:19;4.07;;;1.90;;
38162;SDS011;23977;53.078;18.248;2023-11-25T03:44:46;3.78;;;1.77;;
38162;SDS011;23977;53.078;18.248;2023-11-25T03:47:12;4.90;;;1.90;;
38162;SDS011;23977;53.078;18.248;2023-11-25T03:49:38;4.78;;;1.77;;
38162;SDS011;23977;53.078;18.248;2023-11-25T03:52:05;7.00;;;2.00;;
38162;SDS011;23977;53.078;18.248;2023-11-25T03:54:31;4.63;;;2.17;;
38162;SDS011;23977;53.078;18.248;2023-11-25T03:57:01;6.70;;;2.35;;
38162;SDS011;23977;53.078;18.248;2023-11-25T03:59:26;4.53;;;2.35;;
38162;SDS011;23977;53.078;18.248;2023-11-25T04:01:52;5.50;;;2.00;;
38162;SDS011;23977;53.078;18.248;2023-11-25T04:04:18;5.50;;;1.90;;
38162;SDS011;23977;53.078;18.248;2023-11-25T04:06:43;6.13;;;1.77;;
38162;SDS011;23977;53.078;18.248;2023-11-25T04:09:09;4.03;;;1.80;;
38162;SDS011;23977;53.078;18.248;2023-11-25T04:11:35;5.10;;;1.80;;
38162;SDS011;23977;53.078;18.248;2023-11-25T04:14:01;4.47;;;1.80;;
38162;SDS011;23977;53.078;18.248;2023-11-25T04:16:26;5.00;;;1.67;;
38162;SDS011;23977;53.078;18.248;2023-11-25T04:18:53;4.13;;;1.75;;
38162;SDS011;23977;53.078;18.248;2023-11-25T04:21:21;4.85;;;1.75;;
38162;SDS011;23977;53.078;18.248;2023-11-25T04:23:50;5.13;;;1.70;;
38162;SDS011;23977;53.078;18.248;2023-11-25T04:26:21;4.57;;;1.67;;
38162;SDS011;23977;53.078;18.248;2023-11-25T04:28:48;4.95;;;1.95;;
38162;SDS011;23977;53.078;18.248;2023-11-25T04:31:15;5.22;;;2.13;;
38162;SDS011;23977;53.078;18.248;2023-11-25T04:33:41;5.80;;;2.35;;
38162;SDS011;23977;53.078;18.248;2023-11-25T04:36:08;5.72;;;1.83;;
38162;SDS011;23977;53.078;18.248;2023-11-25T04:52:53;4.80;;;2.00;;
38162;SDS011;23977;53.078;18.248;2023-11-25T04:56:10;4.78;;;1.98;;
38162;SDS011;23977;53.078;18.248;2023-11-25T05:02:42;5.13;;;2.13;;
38162;SDS011;23977;53.078;18.248;2023-11-25T05:05:09;6.00;;;2.40;;
38162;SDS011;23977;53.078;18.248;2023-11-25T05:07:35;7.40;;;3.00;;
38162;SDS011;23977;53.078;18.248;2023-11-25T05:10:02;6.68;;;2.97;;
38162;SDS011;23977;53.078;18.248;2023-11-25T05:12:32;7.45;;;2.95;;
38162;SDS011;23977;53.078;18.248;2023-11-25T05:14:58;9.13;;;2.85;;
38162;SDS011;23977;53.078;18.248;2023-11-25T05:17:24;5.60;;;2.30;;
38162;SDS011;23977;53.078;18.248;2023-11-25T05:19:50;6.32;;;2.67;;
38162;SDS011;23977;53.078;18.248;2023-11-25T05:22:16;4.18;;;2.08;;
38162;SDS011;23977;53.078;18.248;2023-11-25T05:24:42;4.00;;;2.20;;
38162;SDS011;23977;53.078;18.248;2023-11-25T05:27:07;5.50;;;2.00;;
38162;SDS011;23977;53.078;18.248;2023-11-25T05:29:33;4.55;;;2.00;;
38162;SDS011;23977;53.078;18.248;2023-11-25T05:32:03;6.78;;;2.20;;
38162;SDS011;23977;53.078;18.248;2023-11-25T05:34:30;4.38;;;1.75;;
38162;SDS011;23977;53.078;18.248;2023-11-25T05:36:56;4.00;;;1.70;;
38162;SDS011;23977;53.078;18.248;2023-11-25T05:39:23;4.20;;;1.90;;
38162;SDS011;23977;53.078;18.248;2023-11-25T05:41:50;5.22;;;1.92;;
38162;SDS011;23977;53.078;18.248;2023-11-25T05:44:17;5.10;;;1.85;;
38162;SDS011;23977;53.078;18.248;2023-11-25T05:46:45;5.00;;;2.13;;
38162;SDS011;23977;53.078;18.248;2023-11-25T05:49:11;6.25;;;2.15;;
38162;SDS011;23977;53.078;18.248;2023-11-25T05:51:37;4.50;;;2.03;;
38162;SDS011;23977;53.078;18.248;2023-11-25T05:54:08;7.05;;;2.25;;
38162;SDS011;23977;53.078;18.248;2023-11-25T05:56:38;5.90;;;2.00;;
38162;SDS011;23977;53.078;18.248;2023-11-25T05:59:07;6.28;;;1.92;;
38162;SDS011;23977;53.078;18.248;2023-11-25T06:01:37;4.60;;;2.20;;
38162;SDS011;23977;53.078;18.248;2023-11-25T06:04:06;5.60;;;2.53;;
38162;SDS011;23977;53.078;18.248;2023-11-25T06:06:33;6.63;;;2.80;;
38162;SDS011;23977;53.078;18.248;2023-11-25T06:09:00;6.18;;;2.45;;
38162;SDS011;23977;53.078;18.248;2023-11-25T06:11:26;4.88;;;2.22;;
38162;SDS011;23977;53.078;18.248;2023-11-25T06:13:56;7.05;;;2.60;;
38162;SDS011;23977;53.078;18.248;2023-11-25T06:16:22;5.47;;;2.60;;
38162;SDS011;23977;53.078;18.248;2023-11-25T06:18:49;7.82;;;2.50;;
38162;SDS011;23977;53.078;18.248;2023-11-25T06:21:15;8.05;;;2.63;;
38162;SDS011;23977;53.078;18.248;2023-11-25T06:23:42;5.72;;;2.70;;
38162;SDS011;23977;53.078;18.248;2023-11-25T06:26:11;6.00;;;2.30;;
38162;SDS011;23977;53.078;18.248;2023-11-25T06:28:41;5.45;;;2.50;;
38162;SDS011;23977;53.078;18.248;2023-11-25T06:31:13;5.20;;;2.35;;
38162;SDS011;23977;53.078;18.248;2023-11-25T06:33:49;5.75;;;2.30;;
38162;SDS011;23977;53.078;18.248;2023-11-25T06:36:17;5.70;;;2.22;;
38162;SDS011;23977;53.078;18.248;2023-11-25T06:38:43;5.28;;;2.50;;
38162;SDS011;23977;53.078;18.248;2023-11-25T06:41:10;5.63;;;2.45;;
38162;SDS011;23977;53.078;18.248;2023-11-25T06:43:37;4.50;;;2.22;;
38162;SDS011;23977;53.078;18.248;2023-11-25T06:46:04;6.32;;;2.42;;
38162;SDS011;23977;53.078;18.248;2023-11-25T06:48:32;5.47;;;2.28;;
38162;SDS011;23977;53.078;18.248;2023-11-25T06:51:06;7.13;;;1.88;;
38162;SDS011;23977;53.078;18.248;2023-11-25T06:53:52;4.22;;;2.10;;
38162;SDS011;23977;53.078;18.248;2023-11-25T06:56:18;2.92;;;1.50;;
38162;SDS011;23977;53.078;18.248;2023-11-25T06:58:46;4.28;;;1.52;;
38162;SDS011;23977;53.078;18.248;2023-11-25T07:01:16;4.15;;;1.55;;
38162;SDS011;23977;53.078;18.248;2023-11-25T07:03:45;3.00;;;1.00;;
38162;SDS011;23977;53.078;18.248;2023-11-25T07:06:12;3.17;;;1.25;;
38162;SDS011;23977;53.078;18.248;2023-11-25T07:08:42;3.63;;;1.20;;
38162;SDS011;23977;53.078;18.248;2023-11-25T07:11:08;4.22;;;1.40;;
38162;SDS011;23977;53.078;18.248;2023-11-25T07:13:36;3.78;;;1.40;;
38162;SDS011;23977;53.078;18.248;2023-11-25T07:16:03;4.65;;;1.30;;
38162;SDS011;23977;53.078;18.248;2023-11-25T07:18:33;3.22;;;1.20;;
38162;SDS011;23977;53.078;18.248;2023-11-25T07:20:59;3.60;;;1.63;;
38162;SDS011;23977;53.078;18.248;2023-11-25T07:23:26;3.55;;;1.42;;
38162;SDS011;23977;53.078;18.248;2023-11-25T07:25:53;4.55;;;1.50;;
38162;SDS011;23977;53.078;18.248;2023-11-25T07:28:23;4.15;;;1.67;;
38162;SDS011;23977;53.078;18.248;2023-11-25T15:39:22;4.20;;;2.05;;
38162;SDS011;23977;53.078;18.248;2023-11-25T15:42:22;5.22;;;2.35;;
38162;SDS011;23977;53.078;18.248;2023-11-25T15:45:17;3.72;;;2.00;;
38162;SDS011;23977;53.078;18.248;2023-11-25T16:43:38;4.85;;;2.30;;
38162;SDS011;23977;53.078;18.248;2023-11-25T16:46:31;4.65;;;2.33;;
38162;SDS011;23977;53.078;18.248;2023-11-25T16:49:19;5.32;;;2.50;;
38162;SDS011;23977;53.078;18.248;2023-11-25T16:52:24;5.32;;;2.60;;
38162;SDS011;23977;53.078;18.248;2023-11-25T16:55:02;5.97;;;2.90;;
38162;SDS011;23977;53.078;18.248;2023-11-25T17:13:32;6.50;;;3.15;;
38162;SDS011;23977;53.078;18.248;2023-11-25T17:16:21;6.93;;;3.28;;
38162;SDS011;23977;53.078;18.248;2023-11-25T19:11:22;6.38;;;3.60;;
38162;SDS011;23977;53.078;18.248;2023-11-25T19:47:29;10.63;;;4.95;;
38162;SDS011;23977;53.078;18.248;2023-11-25T19:50:14;9.30;;;4.50;;
38162;SDS011;23977;53.078;18.248;2023-11-25T19:53:16;9.55;;;4.53;;
38162;SDS011;23977;53.078;18.248;2023-11-25T20:51:09;7.55;;;3.10;;
38162;SDS011;23977;53.078;18.248;2023-11-25T20:54:46;6.93;;;3.30;;
38162;SDS011;23977;53.078;18.248;2023-11-25T20:57:47;6.45;;;2.95;;
38162;SDS011;23977;53.078;18.248;2023-11-25T21:01:21;5.75;;;2.70;;
38162;SDS011;23977;53.078;18.248;2023-11-25T21:25:57;5.57;;;2.28;;
38162;SDS011;23977;53.078;18.248;2023-11-25T21:58:07;5.50;;;2.50;;
38162;SDS011;23977;53.078;18.248;2023-11-25T22:01:08;5.40;;;1.90;;
38162;SDS011;23977;53.078;18.248;2023-11-25T22:03:53;5.63;;;2.03;;
38162;SDS011;23977;53.078;18.248;2023-11-25T22:07:08;4.32;;;1.75;;
38162;SDS011;23977;53.078;18.248;2023-11-25T22:10:30;4.65;;;1.77;;
38162;SDS011;23977;53.078;18.248;2023-11-25T22:13:00;3.05;;;1.58;;
38162;SDS011;23977;53.078;18.248;2023-11-25T22:15:28;5.07;;;1.70;;
38162;SDS011;23977;53.078;18.248;2023-11-25T22:18:13;4.55;;;1.83;;
38162;SDS011;23977;53.078;18.248;2023-11-25T22:21:35;4.25;;;1.60;;
38162;SDS011;23977;53.078;18.248;2023-11-25T22:24:25;4.93;;;1.65;;
38162;SDS011;23977;53.078;18.248;2023-11-25T22:28:03;5.05;;;1.80;;
38162;SDS011;23977;53.078;18.248;2023-11-25T22:30:47;3.70;;;1.63;;
38162;SDS011;23977;53.078;18.248;2023-11-25T22:33:20;3.60;;;1.70;;
38162;SDS011;23977;53.078;18.248;2023-11-25T22:35:50;3.92;;;1.60;;
38162;SDS011;23977;53.078;18.248;2023-11-25T22:38:48;3.67;;;1.48;;
38162;SDS011;23977;53.078;18.248;2023-11-25T22:42:32;3.88;;;1.40;;
38162;SDS011;23977;53.078;18.248;2023-11-25T22:45:48;3.63;;;1.50;;
38162;SDS011;23977;53.078;18.248;2023-11-25T22:49:30;3.80;;;1.50;;
38162;SDS011;23977;53.078;18.248;2023-11-25T22:52:35;3.42;;;1.60;;
38162;SDS011;23977;53.078;18.248;2023-11-25T22:55:17;3.85;;;1.73;;
38162;SDS011;23977;53.078;18.248;2023-11-25T22:57:51;3.88;;;1.80;;
38162;SDS011;23977;53.078;18.248;2023-11-25T23:00:19;4.93;;;1.88;;
38162;SDS011;23977;53.078;18.248;2023-11-25T23:03:24;4.85;;;2.13;;
38162;SDS011;23977;53.078;18.248;2023-11-25T23:06:09;5.88;;;2.15;;
38162;SDS011;23977;53.078;18.248;2023-11-25T23:08:44;4.00;;;1.75;;
38162;SDS011;23977;53.078;18.248;2023-11-25T23:11:19;3.90;;;1.80;;
38162;SDS011;23977;53.078;18.248;2023-11-25T23:14:14;4.90;;;1.90;;
38162;SDS011;23977;53.078;18.248;2023-11-25T23:16:42;4.43;;;2.00;;
38162;SDS011;23977;53.078;18.248;2023-11-25T23:19:48;4.38;;;1.73;;
38162;SDS011;23977;53.078;18.248;2023-11-25T23:23:24;4.28;;;1.58;;
38162;SDS011;23977;53.078;18.248;2023-11-25T23:25:55;4.25;;;1.73;;
38162;SDS011;23977;53.078;18.248;2023-11-25T23:28:23;2.88;;;1.48;;
38162;SDS011;23977;53.078;18.248;2023-11-25T23:30:52;3.92;;;1.73;;
38162;SDS011;23977;53.078;18.248;2023-11-25T23:33:19;3.10;;;1.48;;
38162;SDS011;23977;53.078;18.248;2023-11-25T23:35:50;4.45;;;1.80;;
38162;SDS011;23977;53.078;18.248;2023-11-25T23:38:18;4.50;;;1.70;;
38162;SDS011;23977;53.078;18.248;2023-11-25T23:40:52;3.08;;;1.58;;
38162;SDS011;23977;53.078;18.248;2023-11-25T23:43:19;4.03;;;1.75;;
38162;SDS011;23977;53.078;18.248;2023-11-25T23:45:59;5.30;;;1.70;;
38162;SDS011;23977;53.078;18.248;2023-11-25T23:48:31;3.72;;;1.80;;
38162;SDS011;23977;53.078;18.248;2023-11-25T23:50:56;3.72;;;1.77;;
38162;SDS011;23977;53.078;18.248;2023-11-25T23:53:24;3.45;;;1.67;;
38162;SDS011;23977;53.078;18.248;2023-11-25T23:55:52;4.40;;;1.50;;
38162;SDS011;23977;53.078;18.248;2023-11-25T23:58:19;3.65;;;1.60;;
